createdAt,value
2022-12-03T00:01:07.501Z,10.61
2022-12-03T00:03:36.874Z,10.51
2022-12-03T00:06:05.405Z,10.53
2022-12-03T00:08:33.686Z,10.51
2022-12-03T00:11:01.927Z,10.53
2022-12-03T00:13:31.638Z,10.43
2022-12-03T00:15:59.933Z,10.40
2022-12-03T00:18:28.270Z,10.44
2022-12-03T00:20:56.697Z,10.42
2022-12-03T00:23:25.319Z,10.42
2022-12-03T00:25:53.727Z,10.29
2022-12-03T00:28:22.090Z,10.43
2022-12-03T00:30:54.113Z,10.32
2022-12-03T00:33:23.083Z,10.04
2022-12-03T00:35:51.336Z,9.82
2022-12-03T00:38:19.666Z,9.63
2022-12-03T00:40:47.947Z,9.67
2022-12-03T00:43:16.116Z,9.85
2022-12-03T00:45:44.311Z,10.15
2022-12-03T00:48:13.965Z,10.34
2022-12-03T00:50:42.233Z,10.34
2022-12-03T00:53:10.556Z,10.35
2022-12-03T00:55:38.820Z,10.29
2022-12-03T00:58:08.471Z,10.28
2022-12-03T01:00:36.892Z,10.31
2022-12-03T01:03:05.618Z,10.29
2022-12-03T01:05:35.241Z,10.10
2022-12-03T01:08:03.733Z,10.13
2022-12-03T01:10:32.066Z,10.22
2022-12-03T01:13:00.285Z,10.24
2022-12-03T01:15:28.669Z,10.29
2022-12-03T01:17:57.045Z,10.29
2022-12-03T01:20:25.413Z,10.27
2022-12-03T01:22:55.300Z,10.27
2022-12-03T01:25:23.633Z,10.30
2022-12-03T01:27:51.920Z,10.35
2022-12-03T01:30:20.422Z,10.04
2022-12-03T01:32:47.623Z,9.98
2022-12-03T01:35:15.933Z,9.97
2022-12-03T01:37:44.177Z,9.98
2022-12-03T01:40:18.353Z,10.03
2022-12-03T01:42:46.651Z,10.10
2022-12-03T01:45:22.291Z,10.20
2022-12-03T01:47:50.680Z,10.25
2022-12-03T01:50:22.630Z,10.10
2022-12-03T01:52:51.248Z,9.94
2022-12-03T01:55:24.550Z,9.62
2022-12-03T01:57:56.033Z,10.11
2022-12-03T02:00:27.074Z,10.22
2022-12-03T02:02:58.523Z,10.25
2022-12-03T02:05:29.363Z,9.84
2022-12-03T02:07:58.803Z,10.23
2022-12-03T02:10:32.907Z,10.29
2022-12-03T02:13:04.749Z,10.30
2022-12-03T02:15:33.060Z,10.25
2022-12-03T02:18:01.970Z,10.12
2022-12-03T02:20:32.546Z,10.20
2022-12-03T02:23:11.344Z,10.28
2022-12-03T02:25:41.154Z,10.33
2022-12-03T02:28:10.716Z,10.20
2022-12-03T02:30:39.146Z,10.25
2022-12-03T02:33:07.582Z,10.17
2022-12-03T02:35:38.219Z,10.20
2022-12-03T02:38:13.388Z,10.29
2022-12-03T02:40:44.906Z,10.22
2022-12-03T02:43:15.018Z,10.11
2022-12-03T02:45:45.622Z,10.13
2022-12-03T02:48:17.789Z,9.92
2022-12-03T02:50:50.031Z,9.83
2022-12-03T02:53:20.545Z,9.92
2022-12-03T02:55:51.718Z,9.11
2022-12-03T02:58:20.876Z,9.87
2022-12-03T03:00:50.140Z,9.54
2022-12-03T03:03:37.420Z,9.93
2022-12-03T03:06:07.680Z,10.01
2022-12-03T03:08:36.654Z,10.08
2022-12-03T03:11:06.675Z,10.13
2022-12-03T03:13:36.421Z,10.24
2022-12-03T03:16:05.876Z,10.24
2022-12-03T03:18:34.781Z,10.26
2022-12-03T03:21:03.853Z,10.04
2022-12-03T03:23:32.279Z,10.00
2022-12-03T03:26:03.438Z,10.14
2022-12-03T03:28:35.853Z,10.35
2022-12-03T03:31:07.691Z,10.06
2022-12-03T03:33:36.949Z,10.26
2022-12-03T03:36:05.753Z,10.29
2022-12-03T03:38:35.480Z,10.26
2022-12-03T03:41:07.223Z,10.22
2022-12-03T03:43:38.438Z,10.15
2022-12-03T03:46:08.111Z,10.17
2022-12-03T03:48:36.977Z,9.84
2022-12-03T03:51:09.682Z,10.04
2022-12-03T03:53:40.207Z,9.89
2022-12-03T03:56:09.718Z,10.05
2022-12-03T03:58:39.892Z,10.24
2022-12-03T04:01:08.563Z,9.87
2022-12-03T04:03:37.096Z,9.66
2022-12-03T04:06:05.903Z,9.81
2022-12-03T04:08:34.136Z,10.01
2022-12-03T04:11:19.881Z,10.05
2022-12-03T04:13:49.619Z,10.22
2022-12-03T04:16:17.961Z,10.32
2022-12-03T04:18:46.292Z,10.37
2022-12-03T04:21:34.390Z,10.37
2022-12-03T04:24:03.280Z,10.39
2022-12-03T04:26:49.254Z,10.35
2022-12-03T04:29:18.979Z,10.31
2022-12-03T04:32:04.934Z,10.42
2022-12-03T04:34:50.986Z,10.42
2022-12-03T04:37:19.529Z,10.48
2022-12-03T04:39:47.774Z,10.48
2022-12-03T04:42:16.174Z,10.43
2022-12-03T04:44:46.017Z,10.32
2022-12-03T04:47:17.333Z,10.29
2022-12-03T04:49:47.291Z,10.38
2022-12-03T04:52:17.285Z,10.38
2022-12-03T04:54:45.620Z,10.37
2022-12-03T04:57:13.966Z,10.38
2022-12-03T04:59:42.330Z,10.19
2022-12-03T05:02:12.022Z,9.93
2022-12-03T05:04:40.248Z,9.75
2022-12-03T05:07:08.557Z,9.58
2022-12-03T05:09:36.830Z,9.54
2022-12-03T05:12:05.521Z,9.71
2022-12-03T05:14:33.809Z,9.82
2022-12-03T05:17:02.108Z,9.36
2022-12-03T05:19:50.448Z,9.76
2022-12-03T05:22:18.634Z,10.08
2022-12-03T05:24:46.862Z,9.89
2022-12-03T05:27:20.219Z,9.81
2022-12-03T05:29:51.548Z,9.99
2022-12-03T05:32:19.905Z,10.23
2022-12-03T05:34:49.528Z,10.33
2022-12-03T05:37:17.716Z,10.25
2022-12-03T05:39:46.078Z,10.23
2022-12-03T05:42:31.406Z,10.27
2022-12-03T05:44:59.757Z,10.17
2022-12-03T05:47:27.985Z,10.15
2022-12-03T05:49:57.590Z,10.05
2022-12-03T05:52:25.906Z,10.24
2022-12-03T05:54:54.334Z,10.27
2022-12-03T05:57:22.818Z,10.24
2022-12-03T05:59:51.059Z,10.26
2022-12-03T06:02:19.410Z,10.29
2022-12-03T06:04:47.765Z,10.30
2022-12-03T06:07:17.474Z,10.19
2022-12-03T06:09:45.739Z,10.30
2022-12-03T06:12:14.050Z,10.44
2022-12-03T06:14:42.926Z,10.52
2022-12-03T06:17:11.293Z,10.47
2022-12-03T06:19:39.548Z,10.46
2022-12-03T06:22:07.854Z,10.42
2022-12-03T06:24:37.609Z,10.62
2022-12-03T06:27:06.266Z,10.73
2022-12-03T06:29:34.595Z,10.74
2022-12-03T06:32:02.900Z,10.73
2022-12-03T06:34:31.281Z,10.66
2022-12-03T06:36:59.618Z,10.61
2022-12-03T06:39:28.191Z,10.64
2022-12-03T06:41:57.938Z,10.65
2022-12-03T06:44:26.256Z,10.54
2022-12-03T06:46:54.588Z,10.60
2022-12-03T06:49:22.970Z,10.61
2022-12-03T06:51:51.217Z,10.68
2022-12-03T06:54:19.617Z,10.77
2022-12-03T06:56:47.948Z,10.81
2022-12-03T06:59:17.655Z,10.68
2022-12-03T07:01:46.024Z,10.73
2022-12-03T07:04:14.387Z,10.42
2022-12-03T07:06:42.686Z,10.23
2022-12-03T07:09:10.937Z,9.89
2022-12-03T07:11:41.204Z,9.51
2022-12-03T07:14:11.703Z,9.51
2022-12-03T07:16:43.523Z,9.85
2022-12-03T07:19:12.508Z,9.89
2022-12-03T07:21:41.151Z,10.05
2022-12-03T07:24:09.873Z,10.21
2022-12-03T07:26:38.074Z,10.23
2022-12-03T07:29:06.452Z,10.42
2022-12-03T07:31:34.952Z,10.41
2022-12-03T07:34:04.638Z,10.46
2022-12-03T07:36:32.938Z,10.63
2022-12-03T07:39:01.238Z,10.71
2022-12-03T07:41:29.504Z,10.84
2022-12-03T07:43:57.861Z,10.83
2022-12-03T07:46:26.266Z,11.20
2022-12-03T07:48:54.527Z,11.44
2022-12-03T07:51:28.820Z,11.55
2022-12-03T07:54:00.128Z,11.63
2022-12-03T07:56:28.479Z,11.64
2022-12-03T07:58:56.822Z,11.40
2022-12-03T08:01:25.099Z,11.29
2022-12-03T08:03:53.433Z,11.30
2022-12-03T08:06:23.165Z,11.06
2022-12-03T08:08:51.447Z,11.13
2022-12-03T08:11:20.148Z,11.29
2022-12-03T08:13:48.440Z,11.19
2022-12-03T08:16:19.697Z,11.17
2022-12-03T08:18:49.035Z,11.40
2022-12-03T08:21:22.052Z,11.32
2022-12-03T08:23:51.705Z,11.49
2022-12-03T08:26:24.643Z,11.66
2022-12-03T08:28:53.703Z,11.70
2022-12-03T08:31:32.714Z,11.61
2022-12-03T08:34:17.119Z,11.78
2022-12-03T08:36:45.621Z,11.77
2022-12-03T08:39:30.552Z,11.94
2022-12-03T08:42:27.957Z,11.92
2022-12-03T08:44:56.773Z,11.94
2022-12-03T08:47:25.948Z,12.08
2022-12-03T08:49:58.319Z,11.99
2022-12-03T08:52:33.269Z,12.24
2022-12-03T08:55:32.378Z,12.57
2022-12-03T08:58:01.435Z,12.68
2022-12-03T09:00:29.858Z,12.88
2022-12-03T09:03:02.265Z,12.72
2022-12-03T09:05:33.624Z,12.88
2022-12-03T09:08:01.969Z,13.00
2022-12-03T09:10:31.585Z,12.63
2022-12-03T09:13:00.047Z,12.71
2022-12-03T09:15:28.739Z,12.80
2022-12-03T09:17:57.175Z,13.05
2022-12-03T09:20:25.397Z,12.84
2022-12-03T09:22:53.630Z,12.85
2022-12-03T09:25:21.831Z,12.93
2022-12-03T09:27:51.559Z,12.84
2022-12-03T09:30:19.984Z,12.79
2022-12-03T09:32:48.262Z,12.95
2022-12-03T09:35:16.509Z,13.28
2022-12-03T09:37:44.820Z,13.30
2022-12-03T09:40:14.558Z,13.06
2022-12-03T09:42:43.139Z,13.28
2022-12-03T09:45:15.299Z,13.45
2022-12-03T09:47:47.459Z,13.75
2022-12-03T09:50:20.356Z,13.93
2022-12-03T09:52:51.185Z,13.79
2022-12-03T09:55:23.198Z,13.17
2022-12-03T09:57:52.886Z,13.20
2022-12-03T10:00:24.790Z,12.85
2022-12-03T10:02:56.083Z,12.79
2022-12-03T10:05:24.792Z,12.80
2022-12-03T10:07:53.795Z,12.73
2022-12-03T10:10:25.306Z,12.68
2022-12-03T10:12:54.116Z,12.73
2022-12-03T10:15:24.824Z,13.03
2022-12-03T10:17:55.791Z,12.27
2022-12-03T10:20:26.102Z,12.92
2022-12-03T10:22:54.456Z,12.96
2022-12-03T10:25:24.254Z,13.16
2022-12-03T10:28:00.775Z,13.26
2022-12-03T10:30:30.792Z,12.74
2022-12-03T10:33:02.793Z,12.97
2022-12-03T10:35:39.757Z,13.18
2022-12-03T10:38:17.657Z,13.21
2022-12-03T10:40:46.427Z,13.42
2022-12-03T10:43:17.264Z,13.40
2022-12-03T10:45:48.571Z,13.08
2022-12-03T10:48:19.403Z,12.92
2022-12-03T10:50:49.827Z,13.22
2022-12-03T10:53:18.719Z,13.26
2022-12-03T10:55:47.799Z,13.55
2022-12-03T10:58:22.555Z,13.98
2022-12-03T11:00:53.679Z,13.24
2022-12-03T11:03:23.741Z,13.34
2022-12-03T11:05:53.322Z,13.14
2022-12-03T11:08:23.709Z,13.29
2022-12-03T11:10:59.997Z,13.37
2022-12-03T11:13:30.928Z,12.93
2022-12-03T11:16:01.328Z,12.72
2022-12-03T11:19:02.461Z,13.04
2022-12-03T11:21:31.447Z,13.31
2022-12-03T11:24:29.586Z,13.59
2022-12-03T11:27:21.993Z,13.48
2022-12-03T11:29:58.778Z,13.18
2022-12-03T11:33:09.319Z,13.11
2022-12-03T11:36:15.436Z,13.15
2022-12-03T11:38:55.747Z,13.54
2022-12-03T11:41:33.115Z,14.15
2022-12-03T11:44:33.107Z,14.05
2022-12-03T11:47:15.817Z,13.62
2022-12-03T11:49:49.462Z,13.00
2022-12-03T11:52:25.637Z,13.57
2022-12-03T11:54:57.751Z,13.94
2022-12-03T11:57:38.480Z,13.65
2022-12-03T12:00:17.848Z,12.94
2022-12-03T12:02:46.198Z,13.01
2022-12-03T12:05:26.818Z,13.07
2022-12-03T12:07:57.579Z,12.58
2022-12-03T12:10:47.789Z,12.70
2022-12-03T12:13:50.214Z,12.97
2022-12-03T12:16:46.083Z,12.90
2022-12-03T12:19:33.059Z,13.09
2022-12-03T12:22:19.181Z,12.93
2022-12-03T12:24:52.197Z,13.10
2022-12-03T12:27:22.741Z,12.66
2022-12-03T12:29:57.143Z,12.71
2022-12-03T12:32:28.322Z,12.94
2022-12-03T12:35:00.672Z,12.74
2022-12-03T12:37:36.226Z,12.79
2022-12-03T12:40:15.321Z,12.87
2022-12-03T12:42:50.008Z,12.78
2022-12-03T12:45:21.642Z,12.33
2022-12-03T12:47:54.579Z,13.09
2022-12-03T12:50:22.932Z,12.94
2022-12-03T12:52:54.158Z,13.03
2022-12-03T12:55:25.264Z,13.06
2022-12-03T12:57:53.762Z,13.35
2022-12-03T13:00:24.895Z,13.32
2022-12-03T13:02:57.965Z,13.14
2022-12-03T13:05:28.008Z,13.28
2022-12-03T13:07:57.248Z,13.46
2022-12-03T13:10:36.900Z,13.33
2022-12-03T13:13:31.817Z,13.24
2022-12-03T13:16:02.791Z,13.04
2022-12-03T13:18:40.165Z,12.86
2022-12-03T13:21:23.470Z,12.88
2022-12-03T13:23:55.162Z,12.87
2022-12-03T13:26:37.640Z,12.54
2022-12-03T13:29:16.336Z,12.62
2022-12-03T13:31:51.825Z,12.70
2022-12-03T13:34:23.558Z,12.68
2022-12-03T13:36:58.210Z,12.64
2022-12-03T13:39:32.689Z,12.94
2022-12-03T13:42:33.645Z,12.83
2022-12-03T13:45:04.039Z,12.69
2022-12-03T13:47:33.643Z,13.13
2022-12-03T13:50:04.721Z,13.09
2022-12-03T13:52:35.757Z,13.21
2022-12-03T13:55:27.421Z,13.16
2022-12-03T13:57:57.231Z,13.22
2022-12-03T14:00:25.784Z,13.24
2022-12-03T14:02:54.126Z,13.22
2022-12-03T14:05:22.571Z,13.24
2022-12-03T14:07:51.520Z,13.40
2022-12-03T14:10:19.950Z,13.38
2022-12-03T14:12:54.056Z,13.30
2022-12-03T14:15:23.721Z,13.44
2022-12-03T14:17:52.034Z,13.36
2022-12-03T14:20:20.665Z,13.35
2022-12-03T14:22:48.962Z,13.25
2022-12-03T14:25:17.441Z,13.31
2022-12-03T14:27:45.751Z,13.35
2022-12-03T14:30:15.010Z,13.24
2022-12-03T14:32:44.670Z,13.19
2022-12-03T14:35:12.972Z,13.15
2022-12-03T14:37:41.272Z,13.13
2022-12-03T14:40:10.191Z,13.08
2022-12-03T14:42:38.432Z,13.04
2022-12-03T14:45:07.423Z,13.05
2022-12-03T14:47:35.645Z,13.05
2022-12-03T14:50:06.417Z,13.00
2022-12-03T14:52:34.734Z,12.95
2022-12-03T14:55:03.018Z,12.87
2022-12-03T14:57:31.257Z,12.88
2022-12-03T14:59:59.532Z,12.84
2022-12-03T15:02:27.850Z,12.79
2022-12-03T15:04:56.202Z,12.77
2022-12-03T15:07:26.092Z,12.72
2022-12-03T15:09:54.558Z,12.74
2022-12-03T15:12:22.954Z,12.67
2022-12-03T15:14:51.174Z,12.62
2022-12-03T15:17:27.793Z,12.61
2022-12-03T15:19:59.518Z,12.61
2022-12-03T15:22:29.223Z,12.58
2022-12-03T15:24:57.498Z,12.58
2022-12-03T15:27:25.740Z,12.59
2022-12-03T15:29:54.220Z,12.51
2022-12-03T15:32:22.617Z,12.59
2022-12-03T15:34:51.441Z,12.60
2022-12-03T15:37:19.753Z,12.55
2022-12-03T15:39:49.484Z,12.55
2022-12-03T15:42:17.803Z,12.55
2022-12-03T15:44:46.262Z,12.47
2022-12-03T15:47:14.549Z,12.54
2022-12-03T15:49:42.803Z,12.51
2022-12-03T15:52:10.980Z,12.43
2022-12-03T15:54:39.243Z,12.39
2022-12-03T15:57:08.980Z,12.22
2022-12-03T15:59:37.227Z,12.09
2022-12-03T16:02:05.510Z,12.26
2022-12-03T16:04:33.940Z,12.30
2022-12-03T16:07:02.271Z,12.32
2022-12-03T16:09:30.557Z,11.87
2022-12-03T16:11:58.813Z,12.31
2022-12-03T16:14:28.652Z,12.34
2022-12-03T16:16:58.973Z,12.28
2022-12-03T16:19:27.489Z,12.29
2022-12-03T16:21:55.862Z,12.30
2022-12-03T16:24:26.714Z,12.13
2022-12-03T16:26:54.921Z,12.17
2022-12-03T16:29:23.332Z,12.07
2022-12-03T16:31:53.256Z,11.96
2022-12-03T16:34:22.589Z,12.18
2022-12-03T16:36:50.922Z,12.18
2022-12-03T16:39:19.316Z,12.10
2022-12-03T16:41:47.591Z,12.13
2022-12-03T16:44:32.051Z,12.10
2022-12-03T16:47:02.278Z,12.08
2022-12-03T16:49:30.567Z,11.85
2022-12-03T16:51:59.027Z,11.85
2022-12-03T16:54:27.291Z,11.96
2022-12-03T16:56:55.575Z,11.97
2022-12-03T16:59:23.883Z,12.00
2022-12-03T17:01:52.178Z,12.01
2022-12-03T17:04:22.031Z,11.91
2022-12-03T17:06:50.330Z,11.97
2022-12-03T17:09:18.546Z,11.98
2022-12-03T17:11:46.852Z,11.93
2022-12-03T17:14:15.497Z,11.47
2022-12-03T17:16:43.757Z,11.51
2022-12-03T17:19:12.297Z,11.62
2022-12-03T17:21:42.014Z,11.69
2022-12-03T17:24:12.634Z,11.63
2022-12-03T17:26:42.317Z,11.64
2022-12-03T17:29:10.535Z,11.28
2022-12-03T17:31:42.185Z,11.07
2022-12-03T17:34:11.753Z,11.26
2022-12-03T17:36:41.542Z,10.91
2022-12-03T17:39:09.778Z,10.97
2022-12-03T17:41:37.940Z,11.12
2022-12-03T17:44:10.346Z,11.34
2022-12-03T17:46:40.521Z,11.47
2022-12-03T17:49:08.925Z,11.51
2022-12-03T17:51:37.297Z,11.53
2022-12-03T17:54:07.489Z,11.54
2022-12-03T17:56:36.181Z,11.49
2022-12-03T17:59:04.432Z,11.49
2022-12-03T18:01:32.805Z,11.48
2022-12-03T18:04:01.200Z,11.52
2022-12-03T18:06:29.450Z,10.92
2022-12-03T18:08:57.874Z,11.04
2022-12-03T18:11:27.605Z,11.26
2022-12-03T18:13:55.842Z,11.46
2022-12-03T18:16:24.266Z,11.48
2022-12-03T18:18:56.605Z,11.67
2022-12-03T18:21:28.274Z,11.73
2022-12-03T18:23:56.871Z,11.75
2022-12-03T18:26:25.290Z,11.81
2022-12-03T18:28:54.944Z,11.79
2022-12-03T18:31:23.677Z,11.78
2022-12-03T18:33:52.702Z,11.61
2022-12-03T18:36:24.973Z,11.48
2022-12-03T18:38:55.735Z,11.43
2022-12-03T18:41:25.689Z,11.61
2022-12-03T18:43:55.363Z,11.70
2022-12-03T18:46:51.601Z,11.76
2022-12-03T18:49:12.056Z,11.77
2022-12-03T18:51:40.311Z,11.74
2022-12-03T18:54:13.195Z,11.69
2022-12-03T18:56:42.225Z,11.72
2022-12-03T18:59:12.418Z,11.72
2022-12-03T19:01:40.852Z,11.71
2022-12-03T19:04:10.895Z,11.69
2022-12-03T19:06:39.138Z,11.66
2022-12-03T19:09:07.387Z,11.65
2022-12-03T19:11:35.960Z,11.68
2022-12-03T19:14:04.216Z,11.59
2022-12-03T19:16:36.430Z,11.56
2022-12-03T19:19:04.792Z,11.06
2022-12-03T19:21:34.003Z,10.84
2022-12-03T19:26:54.860Z,11.11
2022-12-03T19:29:23.574Z,11.16
2022-12-03T19:31:53.632Z,11.22
2022-12-03T19:34:22.424Z,11.30
2022-12-03T19:36:50.721Z,11.35
2022-12-03T19:39:19.242Z,11.36
2022-12-03T19:41:47.725Z,11.36
2022-12-03T19:44:17.362Z,11.35
2022-12-03T19:46:46.071Z,11.40
2022-12-03T19:49:16.835Z,11.29
2022-12-03T19:51:45.070Z,11.30
2022-12-03T19:54:14.241Z,11.28
2022-12-03T19:56:43.144Z,11.30
2022-12-03T19:59:13.321Z,11.27
2022-12-03T20:01:43.432Z,11.14
2022-12-03T20:04:12.639Z,11.24
2022-12-03T20:06:42.245Z,11.36
2022-12-03T20:09:12.807Z,11.44
2022-12-03T20:11:42.816Z,11.47
2022-12-03T20:14:14.862Z,11.47
2022-12-03T20:16:43.242Z,11.45
2022-12-03T20:19:13.441Z,11.46
2022-12-03T20:21:43.421Z,10.87
2022-12-03T20:24:15.651Z,11.46
2022-12-03T20:26:44.717Z,11.51
2022-12-03T20:29:14.739Z,11.51
2022-12-03T20:31:43.104Z,11.48
2022-12-03T20:34:12.371Z,11.48
2022-12-03T20:36:40.671Z,11.55
2022-12-03T20:39:11.826Z,11.53
2022-12-03T20:41:40.123Z,11.40
2022-12-03T20:44:09.847Z,11.56
2022-12-03T20:46:38.103Z,11.56
2022-12-03T20:49:06.530Z,10.59
2022-12-03T20:51:34.772Z,11.46
2022-12-03T20:54:03.962Z,11.45
2022-12-03T20:56:35.350Z,11.48
2022-12-03T20:59:05.044Z,11.47
2022-12-03T21:01:34.541Z,11.52
2022-12-03T21:06:50.379Z,11.52
2022-12-03T21:09:18.674Z,11.14
2022-12-03T21:11:48.395Z,11.38
2022-12-03T21:14:16.651Z,11.55
2022-12-03T21:19:37.780Z,11.32
2022-12-03T21:22:06.439Z,11.27
2022-12-03T21:24:34.977Z,10.97
2022-12-03T21:27:04.812Z,10.69
2022-12-03T21:29:33.041Z,10.73
2022-12-03T21:32:01.355Z,10.84
2022-12-03T21:34:35.787Z,10.92
2022-12-03T21:37:05.100Z,11.01
2022-12-03T21:39:33.475Z,10.78
2022-12-03T21:42:22.289Z,10.98
2022-12-03T21:44:51.489Z,11.14
2022-12-03T21:47:19.850Z,10.97
2022-12-03T21:49:48.131Z,11.25
2022-12-03T21:52:16.349Z,11.29
2022-12-03T21:54:44.657Z,11.14
2022-12-03T21:57:12.926Z,11.35
2022-12-03T21:59:41.132Z,11.44
2022-12-03T22:02:11.926Z,11.36
2022-12-03T22:04:41.074Z,11.22
2022-12-03T22:07:09.373Z,10.88
2022-12-03T22:09:37.650Z,10.97
2022-12-03T22:12:06.623Z,11.15
2022-12-03T22:14:34.905Z,11.31
2022-12-03T22:17:03.272Z,11.52
2022-12-03T22:19:33.173Z,11.35
2022-12-03T22:22:01.351Z,11.40
2022-12-03T22:24:29.565Z,11.17
2022-12-03T22:26:57.903Z,10.92
2022-12-03T22:29:26.137Z,10.72
2022-12-03T22:31:54.397Z,10.60
2022-12-03T22:34:22.915Z,10.53
2022-12-03T22:36:52.569Z,10.53
2022-12-03T22:39:20.817Z,10.68
2022-12-03T22:41:49.096Z,10.89
2022-12-03T22:44:17.314Z,10.77
2022-12-03T22:46:45.739Z,10.66
2022-12-03T22:49:14.596Z,10.32
2022-12-03T22:51:46.225Z,10.60
2022-12-03T22:54:19.434Z,10.89
2022-12-03T22:56:51.921Z,10.80
2022-12-03T22:59:20.207Z,11.01
2022-12-03T23:01:48.576Z,10.57
2022-12-03T23:04:17.055Z,10.46
2022-12-03T23:06:45.470Z,10.48
2022-12-03T23:09:15.119Z,10.36
2022-12-03T23:11:44.827Z,10.27
2022-12-03T23:14:13.237Z,10.26
2022-12-03T23:16:41.921Z,10.31
2022-12-03T23:19:10.317Z,10.32
2022-12-03T23:21:38.664Z,10.61
2022-12-03T23:24:07.943Z,10.76
2022-12-03T23:26:39.753Z,10.71
2022-12-03T23:29:08.642Z,11.14
2022-12-03T23:31:37.400Z,10.80
2022-12-03T23:34:06.309Z,10.73
2022-12-03T23:36:35.341Z,10.72
2022-12-03T23:39:03.972Z,10.69
2022-12-03T23:41:32.276Z,10.58
2022-12-03T23:44:01.949Z,10.29
2022-12-03T23:46:30.400Z,10.39
2022-12-03T23:49:00.171Z,10.26
2022-12-03T23:51:28.756Z,10.43
2022-12-03T23:53:57.827Z,9.88
2022-12-03T23:56:29.340Z,10.43
2022-12-03T23:58:58.589Z,10.18
